Time;durP1;ratioP1;P1;durP2;ratioP2;P2;SDS_P1;SDS_P2;PMS_P1;PMS_P2;Temp;Humidity;BMP_temperature;BMP_pressure;BME280_temperature;BME280_humidity;BME280_pressure;Samples;Min_cycle;Max_cycle;Signal;HPM_P1;HPM_P2
2023/05/17 00:02:03;;;;;;;;;6.00;6.00;;;;;-147.17;100.00;-15917.19;4978692;28;51538;-70
2023/05/17 00:04:29;;;;;;;;;8.33;8.00;;;;;-147.17;100.00;-15917.19;4977348;28;51099;-69
2023/05/17 00:06:54;;;;;;;;;9.33;8.00;;;;;-147.17;100.00;-15917.19;4969233;28;51286;-69
2023/05/17 00:09:19;;;;;;;;;7.00;6.67;;;;;-147.17;100.00;-15917.19;4990469;28;51325;-69
2023/05/17 00:11:45;;;;;;;;;8.00;8.00;;;;;-147.17;100.00;-15917.19;4977360;28;51099;-69
2023/05/17 00:14:11;;;;;;;;;8.67;8.00;;;;;-147.17;100.00;-15917.19;4988671;28;51320;-69
2023/05/17 00:16:36;;;;;;;;;7.33;7.33;;;;;-147.17;100.00;-15917.19;4967150;28;51221;-69
2023/05/17 00:19:02;;;;;;;;;7.00;6.67;;;;;-147.17;100.00;-15917.19;4987668;28;51128;-68
2023/05/17 00:21:27;;;;;;;;;7.67;7.00;;;;;-147.17;100.00;-15917.19;4970251;28;51180;-68
2023/05/17 00:23:52;;;;;;;;;8.00;7.00;;;;;-147.17;100.00;-15917.19;4985106;28;51178;-68
2023/05/17 00:26:18;;;;;;;;;7.33;6.33;;;;;-147.17;100.00;-15917.19;4976066;28;52835;-70
2023/05/17 00:28:43;;;;;;;;;9.33;8.00;;;;;-147.17;100.00;-15917.19;4979758;28;51145;-68
2023/05/17 00:31:08;;;;;;;;;6.33;6.33;;;;;-147.17;100.00;-15917.19;4989769;28;51267;-68
2023/05/17 00:33:34;;;;;;;;;8.00;8.00;;;;;-147.17;100.00;-15917.19;4986815;28;51107;-68
2023/05/17 00:36:00;;;;;;;;;6.67;6.67;;;;;-147.17;100.00;-15917.19;4982213;28;51193;-69
2023/05/17 00:38:25;;;;;;;;;7.00;7.00;;;;;-147.17;100.00;-15917.19;4981876;28;51684;-70
2023/05/17 00:40:52;;;;;;;;;7.00;7.00;;;;;-147.17;100.00;-15917.19;4964850;28;52394;-68
2023/05/17 00:43:18;;;;;;;;;6.67;6.67;;;;;-147.17;100.00;-15917.19;4988596;28;51161;-70
2023/05/17 00:45:43;;;;;;;;;7.67;7.67;;;;;-147.17;100.00;-15917.19;4982353;28;53259;-69
2023/05/17 00:48:08;;;;;;;;;6.33;5.00;;;;;-147.17;100.00;-15917.19;4985957;28;51206;-69
2023/05/17 00:50:34;;;;;;;;;6.00;6.00;;;;;-147.17;100.00;-15917.19;4982041;28;51542;-69
2023/05/17 00:52:59;;;;;;;;;7.50;7.50;;;;;-147.17;100.00;-15917.19;4985909;28;51205;-68
2023/05/17 00:55:25;;;;;;;;;8.00;8.00;;;;;-147.17;100.00;-15917.19;4990084;28;51444;-69
2023/05/17 00:57:51;;;;;;;;;5.67;5.33;;;;;-147.17;100.00;-15917.19;4960556;28;51492;-69
2023/05/17 01:00:16;;;;;;;;;7.33;6.67;;;;;-147.17;100.00;-15917.19;4983289;28;51820;-68
2023/05/17 01:02:43;;;;;;;;;5.67;5.67;;;;;-147.17;100.00;-15917.19;4982299;28;51210;-68
2023/05/17 01:05:08;;;;;;;;;6.50;6.50;;;;;-147.17;100.00;-15917.19;4976901;28;51330;-68
2023/05/17 01:07:34;;;;;;;;;7.00;7.00;;;;;-147.17;100.00;-15917.19;4975150;28;50913;-70
2023/05/17 01:09:59;;;;;;;;;7.33;7.00;;;;;-147.17;100.00;-15917.19;4982050;28;51881;-70
2023/05/17 01:12:44;;;;;;;;;6.67;6.67;;;;;-147.17;100.00;-15917.19;4973445;28;51087;-68
2023/05/17 01:15:21;;;;;;;;;7.33;6.67;;;;;-147.17;100.00;-15917.19;4979552;28;51204;-69
2023/05/17 01:17:59;;;;;;;;;6.33;6.00;;;;;-147.17;100.00;-15917.19;4987761;28;51188;-69
2023/05/17 01:20:38;;;;;;;;;7.00;7.00;;;;;-147.17;100.00;-15917.19;4992254;28;52200;-69
2023/05/17 01:23:40;;;;;;;;;7.00;6.00;;;;;-147.17;100.00;-15917.19;4991700;28;51172;-70
2023/05/17 01:26:39;;;;;;;;;6.00;6.00;;;;;-147.17;100.00;-15917.19;4980712;28;51191;-70
2023/05/17 01:29:08;;;;;;;;;7.00;7.00;;;;;-147.17;100.00;-15917.19;4962253;28;50998;-69
2023/05/17 01:31:35;;;;;;;;;7.25;7.00;;;;;-147.17;100.00;-15917.19;4992551;28;52930;-69
2023/05/17 01:34:05;;;;;;;;;9.33;8.33;;;;;-147.17;100.00;-15917.19;4977189;28;50924;-68
2023/05/17 01:36:30;;;;;;;;;8.67;7.67;;;;;-147.17;100.00;-15917.19;4986218;28;51259;-68
2023/05/17 01:38:55;;;;;;;;;7.33;6.67;;;;;-147.17;100.00;-15917.19;4983482;28;50862;-69
2023/05/17 01:41:39;;;;;;;;;10.67;8.33;;;;;-147.17;100.00;-15917.19;4988231;28;56298;-68
2023/05/17 01:44:22;;;;;;;;;9.25;8.00;;;;;-147.17;100.00;-15917.19;4977913;28;50961;-70
2023/05/17 01:46:54;;;;;;;;;8.33;8.00;;;;;-147.17;100.00;-15917.19;4984482;28;51104;-68
2023/05/17 01:49:36;;;;;;;;;6.67;6.67;;;;;-147.17;100.00;-15917.19;4981197;28;51615;-68
2023/05/17 01:52:15;;;;;;;;;7.00;7.00;;;;;-147.17;100.00;-15917.19;4981367;28;50960;-69
2023/05/17 01:55:13;;;;;;;;;9.33;8.67;;;;;-147.17;100.00;-15917.19;4968409;28;51189;-69
2023/05/17 01:57:43;;;;;;;;;6.50;6.50;;;;;-147.17;100.00;-15917.19;4964054;28;51035;-69
2023/05/17 02:00:11;;;;;;;;;8.00;6.67;;;;;-147.17;100.00;-15917.19;4976886;28;51367;-70
2023/05/17 02:02:36;;;;;;;;;10.00;8.00;;;;;-147.17;100.00;-15917.19;4962161;28;51071;-69
2023/05/17 02:05:02;;;;;;;;;8.00;8.00;;;;;-147.17;100.00;-15917.19;4989811;28;51107;-70
2023/05/17 02:07:27;;;;;;;;;9.00;8.00;;;;;-147.17;100.00;-15917.19;4955753;28;51034;-69
2023/05/17 02:09:52;;;;;;;;;11.50;9.25;;;;;-147.17;100.00;-15917.19;4988862;28;51327;-69
2023/05/17 02:12:18;;;;;;;;;9.25;9.25;;;;;-147.17;100.00;-15917.19;4975830;28;51862;-69
2023/05/17 02:14:43;;;;;;;;;8.00;8.00;;;;;-147.17;100.00;-15917.19;4988227;28;51170;-71
2023/05/17 02:17:08;;;;;;;;;8.00;8.00;;;;;-147.17;100.00;-15917.19;4985206;28;51864;-68
2023/05/17 02:19:34;;;;;;;;;9.75;8.75;;;;;-147.17;100.00;-15917.19;4971886;28;51293;-69
2023/05/17 02:21:59;;;;;;;;;7.00;6.50;;;;;-147.17;100.00;-15917.19;4983413;28;61777;-69
2023/05/17 02:24:25;;;;;;;;;10.00;9.50;;;;;-147.17;100.00;-15917.19;4988140;28;51526;-69
2023/05/17 02:26:50;;;;;;;;;9.25;9.25;;;;;-147.17;100.00;-15917.19;4992288;28;51181;-69
2023/05/17 02:29:15;;;;;;;;;12.33;9.67;;;;;-147.17;100.00;-15917.19;4990778;28;51313;-69
2023/05/17 02:31:41;;;;;;;;;13.00;11.75;;;;;-147.17;100.00;-15917.19;4986258;28;52824;-69
2023/05/17 02:34:06;;;;;;;;;11.75;9.75;;;;;-147.17;100.00;-15917.19;4987076;28;50965;-69
2023/05/17 02:36:32;;;;;;;;;11.50;9.50;;;;;-147.17;100.00;-15917.19;4982647;28;51257;-69
2023/05/17 02:38:57;;;;;;;;;11.75;10.25;;;;;-147.17;100.00;-15917.19;4986301;28;51393;-70
2023/05/17 02:41:23;;;;;;;;;11.25;10.00;;;;;-147.17;100.00;-15917.19;4990490;28;51920;-69
2023/05/17 02:43:48;;;;;;;;;9.50;9.50;;;;;-147.17;100.00;-15917.19;4982496;28;51708;-69
2023/05/17 02:46:13;;;;;;;;;12.00;11.00;;;;;-147.17;100.00;-15917.19;4975553;28;51030;-69
2023/05/17 02:48:39;;;;;;;;;13.50;12.50;;;;;-147.17;100.00;-15917.19;4995045;28;50985;-69
2023/05/17 02:51:04;;;;;;;;;12.50;11.00;;;;;-147.17;100.00;-15917.19;4975216;28;60939;-70
2023/05/17 02:53:29;;;;;;;;;12.75;11.25;;;;;-147.17;100.00;-15917.19;4972223;28;51629;-70
2023/05/17 02:55:58;;;;;;;;;9.25;8.00;;;;;-147.17;100.00;-15917.19;4987676;28;51236;-70
2023/05/17 02:58:24;;;;;;;;;12.25;12.25;;;;;-147.17;100.00;-15917.19;4981150;28;51315;-69
2023/05/17 03:00:50;;;;;;;;;9.50;8.75;;;;;-147.17;100.00;-15917.19;4981404;28;51919;-69
2023/05/17 03:03:15;;;;;;;;;11.00;9.25;;;;;-147.17;100.00;-15917.19;4989233;28;51095;-69
2023/05/17 03:05:41;;;;;;;;;14.75;14.00;;;;;-147.17;100.00;-15917.19;4967610;28;50936;-70
2023/05/17 03:08:06;;;;;;;;;12.50;12.50;;;;;-147.17;100.00;-15917.19;4983386;28;51158;-68
2023/05/17 03:10:31;;;;;;;;;12.50;12.50;;;;;-147.17;100.00;-15917.19;4984744;28;51856;-68
2023/05/17 03:12:57;;;;;;;;;13.50;12.75;;;;;-147.17;100.00;-15917.19;4984674;28;52094;-69
2023/05/17 03:15:22;;;;;;;;;12.50;12.00;;;;;-147.17;100.00;-15917.19;4980897;28;50999;-69
2023/05/17 03:17:47;;;;;;;;;15.00;14.75;;;;;-147.17;100.00;-15917.19;4961799;28;50951;-68
2023/05/17 03:20:13;;;;;;;;;16.50;15.00;;;;;-147.17;100.00;-15917.19;4965522;28;52834;-70
2023/05/17 03:22:38;;;;;;;;;15.75;15.00;;;;;-147.17;100.00;-15917.19;4985163;28;51221;-69
2023/05/17 03:25:04;;;;;;;;;16.75;16.00;;;;;-147.17;100.00;-15917.19;4989500;28;51154;-70
2023/05/17 03:27:30;;;;;;;;;15.75;14.75;;;;;-147.17;100.00;-15917.19;4982736;28;51150;-69
2023/05/17 03:29:55;;;;;;;;;20.00;15.75;;;;;-147.17;100.00;-15917.19;4984632;28;51685;-68
2023/05/17 03:32:20;;;;;;;;;17.25;16.75;;;;;-147.17;100.00;-15917.19;4985106;28;51122;-69
2023/05/17 03:34:46;;;;;;;;;20.00;19.00;;;;;-147.17;100.00;-15917.19;4965218;28;51206;-69
2023/05/17 03:37:11;;;;;;;;;18.25;17.75;;;;;-147.17;100.00;-15917.19;4990565;28;51352;-68
2023/05/17 03:39:36;;;;;;;;;19.75;18.25;;;;;-147.17;100.00;-15917.19;4986321;28;51827;-69
2023/05/17 03:42:02;;;;;;;;;22.00;21.50;;;;;-147.17;100.00;-15917.19;4986973;28;60722;-71
2023/05/17 03:44:27;;;;;;;;;18.50;16.50;;;;;-147.17;100.00;-15917.19;4984943;28;51069;-70
2023/05/17 03:46:53;;;;;;;;;18.25;17.00;;;;;-147.17;100.00;-15917.19;4988031;28;50953;-70
2023/05/17 03:49:18;;;;;;;;;21.25;16.25;;;;;-147.17;100.00;-15917.19;4979677;28;51495;-70
2023/05/17 03:51:44;;;;;;;;;20.75;19.00;;;;;-147.17;100.00;-15917.19;4985525;28;51016;-69
2023/05/17 03:54:09;;;;;;;;;19.75;16.25;;;;;-147.17;100.00;-15917.19;4982106;28;51046;-69
2023/05/17 03:56:34;;;;;;;;;20.00;18.50;;;;;-147.17;100.00;-15917.19;4987229;28;57021;-69
2023/05/17 03:58:59;;;;;;;;;18.00;16.75;;;;;-147.17;100.00;-15917.19;4985067;28;50930;-69
2023/05/17 04:01:25;;;;;;;;;24.50;23.00;;;;;-147.17;100.00;-15917.19;4984263;28;51023;-70
2023/05/17 04:03:50;;;;;;;;;23.00;20.75;;;;;-147.17;100.00;-15917.19;4978266;28;51054;-69
2023/05/17 04:06:15;;;;;;;;;22.00;19.75;;;;;-147.17;100.00;-15917.19;4964287;28;51140;-70
2023/05/17 04:08:41;;;;;;;;;23.50;21.75;;;;;-147.17;100.00;-15917.19;4989082;28;51765;-70
2023/05/17 04:11:11;;;;;;;;;22.50;21.75;;;;;-147.17;100.00;-15917.19;4983418;28;50932;-69
2023/05/17 04:13:37;;;;;;;;;22.00;21.00;;;;;-147.17;100.00;-15917.19;4977178;28;51264;-69
2023/05/17 04:16:02;;;;;;;;;24.00;22.25;;;;;-147.17;100.00;-15917.19;4982058;28;51452;-69
2023/05/17 04:18:28;;;;;;;;;22.75;21.25;;;;;-147.17;100.00;-15917.19;4991621;28;51875;-68
2023/05/17 04:20:56;;;;;;;;;23.25;21.50;;;;;-147.17;100.00;-15917.19;4970387;28;51081;-68
2023/05/17 04:23:21;;;;;;;;;26.25;24.00;;;;;-147.17;100.00;-15917.19;4978866;28;51154;-67
2023/05/17 04:25:46;;;;;;;;;23.00;19.75;;;;;-147.17;100.00;-15917.19;4984496;28;51373;-68
2023/05/17 04:28:12;;;;;;;;;19.50;17.25;;;;;-147.17;100.00;-15917.19;4985553;28;56496;-69
2023/05/17 04:30:42;;;;;;;;;21.25;19.50;;;;;-147.17;100.00;-15917.19;4968577;28;50968;-69
2023/05/17 04:33:07;;;;;;;;;23.00;20.75;;;;;-147.17;100.00;-15917.19;4986422;28;51201;-68
2023/05/17 04:35:32;;;;;;;;;23.00;22.50;;;;;-147.17;100.00;-15917.19;4981206;28;51384;-67
2023/05/17 04:37:57;;;;;;;;;21.00;18.25;;;;;-147.17;100.00;-15917.19;4966612;28;51824;-68
2023/05/17 04:40:23;;;;;;;;;27.25;21.75;;;;;-147.17;100.00;-15917.19;4984141;28;52944;-68
2023/05/17 04:42:49;;;;;;;;;23.00;21.50;;;;;-147.17;100.00;-15917.19;4989065;28;51162;-68
2023/05/17 04:45:15;;;;;;;;;23.00;21.00;;;;;-147.17;100.00;-15917.19;4981629;28;51139;-68
2023/05/17 04:47:40;;;;;;;;;23.00;20.75;;;;;-147.17;100.00;-15917.19;4962127;28;51813;-68
2023/05/17 04:50:05;;;;;;;;;24.00;21.25;;;;;-147.17;100.00;-15917.19;4985118;28;51455;-70
2023/05/17 04:52:31;;;;;;;;;19.50;17.50;;;;;-147.17;100.00;-15917.19;4976959;28;51089;-69
2023/05/17 04:54:56;;;;;;;;;20.25;18.00;;;;;-147.17;100.00;-15917.19;4987698;28;50980;-69
2023/05/17 04:57:22;;;;;;;;;18.25;17.50;;;;;-147.17;100.00;-15917.19;4976036;28;51958;-69
2023/05/17 04:59:47;;;;;;;;;22.00;20.50;;;;;-147.17;100.00;-15917.19;4974519;28;51185;-69
2023/05/17 05:02:13;;;;;;;;;19.50;16.75;;;;;-147.17;100.00;-15917.19;4970552;28;57239;-70
2023/05/17 05:04:38;;;;;;;;;19.75;19.50;;;;;-147.17;100.00;-15917.19;4976696;28;51304;-69
2023/05/17 05:07:04;;;;;;;;;21.75;20.75;;;;;-147.17;100.00;-15917.19;4977398;28;51410;-69
2023/05/17 05:09:29;;;;;;;;;21.25;20.00;;;;;-147.17;100.00;-15917.19;4982489;28;51415;-69
2023/05/17 05:11:55;;;;;;;;;19.00;18.00;;;;;-147.17;100.00;-15917.19;4976777;28;51352;-69
2023/05/17 05:14:20;;;;;;;;;22.75;20.50;;;;;-147.17;100.00;-15917.19;4992508;28;50939;-69
2023/05/17 05:16:46;;;;;;;;;25.00;22.75;;;;;-147.17;100.00;-15917.19;4991865;28;51070;-69
2023/05/17 05:19:11;;;;;;;;;18.00;17.50;;;;;-147.17;100.00;-15917.19;4989901;28;54300;-69
2023/05/17 05:21:36;;;;;;;;;21.25;21.25;;;;;-147.17;100.00;-15917.19;4972942;28;51155;-69
2023/05/17 05:24:03;;;;;;;;;18.25;17.00;;;;;-147.17;100.00;-15917.19;4981092;28;51393;-69
2023/05/17 05:26:28;;;;;;;;;21.50;21.25;;;;;-147.17;100.00;-15917.19;4955094;28;51637;-69
2023/05/17 05:28:53;;;;;;;;;22.50;20.75;;;;;-147.17;100.00;-15917.19;4984630;28;51311;-69
2023/05/17 05:31:19;;;;;;;;;19.75;19.75;;;;;-147.17;100.00;-15917.19;4980984;28;50903;-69
2023/05/17 05:33:44;;;;;;;;;21.50;20.25;;;;;-147.17;100.00;-15917.19;4966247;28;51318;-69
2023/05/17 05:36:10;;;;;;;;;15.00;13.75;;;;;-147.17;100.00;-15917.19;4981672;28;51235;-70
2023/05/17 05:38:36;;;;;;;;;19.00;18.50;;;;;-147.17;100.00;-15917.19;4959254;28;51246;-69
2023/05/17 05:41:01;;;;;;;;;22.25;18.75;;;;;-147.17;100.00;-15917.19;4981623;28;51029;-69
2023/05/17 05:43:26;;;;;;;;;21.75;19.75;;;;;-147.17;100.00;-15917.19;4963840;28;51386;-70
2023/05/17 05:45:52;;;;;;;;;19.75;18.00;;;;;-147.17;100.00;-15917.19;4979685;28;51762;-71
2023/05/17 05:48:17;;;;;;;;;20.25;19.50;;;;;-147.17;100.00;-15917.19;4957985;28;51408;-71
2023/05/17 05:50:43;;;;;;;;;19.25;18.50;;;;;-147.17;100.00;-15420.25;4982083;28;51214;-71
2023/05/17 05:53:09;;;;;;;;;18.75;17.75;;;;;-147.17;100.00;-14676.94;4977366;28;50924;-68
2023/05/17 05:55:34;;;;;;;;;16.50;16.50;;;;;-147.17;100.00;-13685.63;4987194;28;51156;-70
2023/05/17 05:58:00;;;;;;;;;20.50;20.00;;;;;-147.17;100.00;-12446.13;4964924;28;52481;-70
2023/05/17 06:00:25;;;;;;;;;22.33;20.33;;;;;-147.17;100.00;-12198.19;4978163;28;51592;-69
2023/05/17 06:02:52;;;;;;;;;21.75;20.75;;;;;-147.17;100.00;-11454.25;4978738;28;51489;-69
2023/05/17 06:05:18;;;;;;;;;18.00;17.25;;;;;-147.17;100.00;-9717.81;4973821;28;52542;-69
2023/05/17 06:07:43;;;;;;;;;20.00;18.00;;;;;-147.17;100.00;-6987.56;4977461;28;51129;-69
2023/05/17 06:10:09;;;;;;;;;19.33;18.33;;;;;-147.17;100.00;-6490.94;4983721;28;51299;-70
2023/05/17 06:12:34;;;;;;;;;14.33;12.33;;;;;-147.17;100.00;-3509.84;4969026;28;51418;-69
2023/05/17 06:15:00;;;;;;;;;17.00;16.33;;;;;-147.17;100.00;-2515.66;4975124;28;51804;-69
2023/05/17 06:17:25;;;;;;;;;18.33;18.00;;;;;-147.17;100.00;717.28;4974996;28;51009;-69
2023/05/17 06:19:51;;;;;;;;;19.33;17.33;;;;;-147.17;100.00;1463.72;4990218;28;51155;-70
2023/05/17 06:22:16;;;;;;;;;18.67;18.00;;;;;-147.17;100.00;3206.00;4981676;28;51398;-69
2023/05/17 06:24:42;;;;;;;;;18.33;17.00;;;;;-147.17;100.00;4450.97;4989821;28;51968;-69
2023/05/17 06:27:07;;;;;;;;;19.67;17.67;;;;;-147.17;100.00;7191.28;4982619;28;51193;-71
2023/05/17 06:29:32;;;;;;;;;18.00;18.00;;;;;-147.17;100.00;8437.53;4987211;28;51331;-71
2023/05/17 06:31:58;;;;;;;;;13.67;11.00;;;;;-147.17;100.00;10681.81;4978382;28;51305;-70
2023/05/17 06:34:24;;;;;;;;;17.67;17.67;;;;;-147.17;100.00;16173.25;4977796;28;51915;-70
2023/05/17 06:36:49;;;;;;;;;22.50;21.25;;;;;-147.17;100.00;19421.84;4988135;28;51254;-70
2023/05/17 06:39:15;;;;;;;;;22.00;20.67;;;;;-147.17;100.00;19171.84;4951349;28;51576;-70
2023/05/17 06:41:40;;;;;;;;;17.00;17.00;;;;;-147.17;100.00;23595.88;4974201;28;51770;-70
2023/05/17 06:44:06;;;;;;;;;17.00;15.67;;;;;-147.17;100.00;23095.38;4983807;28;51758;-71
2023/05/17 06:46:31;;;;;;;;;15.00;13.33;;;;;-147.17;100.00;24802.41;4972175;28;51188;-71
2023/05/17 06:48:56;;;;;;;;;18.33;17.33;;;;;-147.17;100.00;28400.78;4970758;28;51379;-72
2023/05/17 06:51:23;;;;;;;;;18.33;17.00;;;;;-147.17;100.00;31773.22;4987136;28;51109;-63
2023/05/17 06:53:49;;;;;;;;;14.33;13.00;;;;;-147.17;100.00;33456.59;4979953;28;51678;-65
2023/05/17 06:56:14;;;;;;;;;11.67;11.00;;;;;-147.17;100.00;33674.19;4984981;28;51049;-65
2023/05/17 06:58:40;;;;;;;;;12.67;12.00;;;;;-147.17;100.00;34693.63;4985086;28;51329;-66
2023/05/17 07:01:05;;;;;;;;;13.33;12.00;;;;;-147.17;100.00;34936.78;4958940;28;51408;-66
2023/05/17 07:03:31;;;;;;;;;12.00;10.00;;;;;-147.17;100.00;37051.16;4970391;28;52569;-66
2023/05/17 07:05:56;;;;;;;;;14.33;13.00;;;;;-147.17;100.00;36242.94;4975690;28;51009;-66
2023/05/17 07:08:21;;;;;;;;;12.67;11.33;;;;;-147.17;100.00;35683.94;4980621;28;51049;-65
2023/05/17 07:10:46;;;;;;;;;14.67;14.00;;;;;-147.17;100.00;33772.19;4969338;28;51137;-72
2023/05/17 07:13:12;;;;;;;;;15.67;15.33;;;;;-147.17;100.00;35819.25;4993350;28;51684;-72
2023/05/17 07:15:37;;;;;;;;;13.00;12.33;;;;;-147.17;100.00;35281.91;4974840;28;51068;-66
2023/05/17 07:18:03;;;;;;;;;13.00;12.33;;;;;-147.17;100.00;37590.72;4959625;28;51270;-65
2023/05/17 07:23:03;;;;;;;;;12.00;11.00;;;;;-147.17;100.00;38365.84;4996202;22;51759;-64
2023/05/17 07:25:30;;;;;;;;;8.00;7.33;;;;;-147.17;100.00;37847.78;4999836;28;51123;-65
2023/05/17 07:27:55;;;;;;;;;8.00;7.67;;;;;-147.17;100.00;37863.47;4989855;28;51047;-64
2023/05/17 07:30:21;;;;;;;;;8.33;8.00;;;;;-147.17;100.00;38426.69;4993853;28;51499;-65
2023/05/17 07:32:46;;;;;;;;;11.00;10.33;;;;;-147.17;100.00;39052.81;4981852;28;51896;-65
2023/05/17 07:35:11;;;;;;;;;13.67;11.67;;;;;-147.17;100.00;38471.84;4993881;28;51083;-65
2023/05/17 07:37:37;;;;;;;;;12.33;11.33;;;;;-147.17;100.00;37969.44;4993844;28;51250;-65
2023/05/17 07:40:04;;;;;;;;;14.00;11.67;;;;;-147.17;100.00;37989.06;4991953;28;51118;-65
2023/05/17 07:42:29;;;;;;;;;12.00;11.00;;;;;-147.17;100.00;37989.06;4972793;28;54040;-64
2023/05/17 07:44:55;;;;;;;;;11.00;10.00;;;;;-147.17;100.00;38687.75;4992489;28;51027;-65
2023/05/17 07:47:20;;;;;;;;;11.00;10.00;;;;;-147.17;100.00;38603.34;4992590;28;51176;-66
2023/05/17 07:49:46;;;;;;;;;8.33;8.33;;;;;-147.17;100.00;38734.84;4993718;28;51430;-65
2023/05/17 07:52:11;;;;;;;;;12.00;12.00;;;;;-147.17;100.00;39657.44;4992422;28;52916;-66
2023/05/17 07:54:36;;;;;;;;;16.00;14.00;;;;;-147.17;100.00;39229.50;4979416;28;51217;-65
2023/05/17 07:57:02;;;;;;;;;14.67;13.33;;;;;-147.17;100.00;38734.84;4981998;28;52503;-65
2023/05/17 07:59:27;;;;;;;;;13.00;12.00;;;;;-147.17;100.00;38175.50;4982830;28;51220;-65
2023/05/17 08:01:53;;;;;;;;;14.67;12.33;;;;;-147.17;100.00;38259.88;4991892;28;53250;-65
2023/05/17 08:04:18;;;;;;;;;12.67;11.00;;;;;-147.17;100.00;39109.75;4993978;28;51053;-64
2023/05/17 08:06:47;;;;;;;;;9.00;9.00;;;;;-147.17;100.00;39751.69;4992442;28;51202;-64
2023/05/17 08:09:14;;;;;;;;;15.67;14.67;;;;;-147.17;100.00;39594.63;4992075;28;51190;-64
2023/05/17 08:11:44;;;;;;;;;13.67;13.33;;;;;-147.17;100.00;39476.84;4993274;28;51032;-64
2023/05/17 08:14:16;;;;;;;;;12.67;11.00;;;;;-147.17;100.00;39547.50;4993443;28;50878;-65
2023/05/17 08:16:42;;;;;;;;;9.67;9.67;;;;;-147.17;100.00;39278.56;4990318;28;51154;-66
2023/05/17 08:19:11;;;;;;;;;12.00;11.33;;;;;-147.17;100.00;39590.69;4993508;28;51296;-65
2023/05/17 08:21:37;;;;;;;;;18.00;16.67;;;;;-147.17;100.00;39498.44;4993211;28;51222;-64
2023/05/17 08:24:03;;;;;;;;;11.33;10.00;;;;;-147.17;100.00;39190.22;4991773;28;51068;-65
2023/05/17 08:26:28;;;;;;;;;12.33;12.00;;;;;-147.17;100.00;38778.03;4993191;28;51282;-65
2023/05/17 08:28:54;;;;;;;;;15.33;14.00;;;;;-147.17;100.00;38573.91;4991205;28;51186;-64
2023/05/17 08:31:19;;;;;;;;;16.00;15.00;;;;;-147.17;100.00;39355.13;4993360;28;51947;-65
2023/05/17 08:33:45;;;;;;;;;12.00;11.33;;;;;-147.17;100.00;39512.19;4991478;28;56228;-65
2023/05/17 08:36:10;;;;;;;;;12.67;11.00;;;;;-147.17;100.00;39520.03;4993509;28;50936;-64
2023/05/17 08:38:36;;;;;;;;;11.33;10.67;;;;;-147.17;100.00;39288.38;4993047;28;51153;-65
2023/05/17 08:41:01;;;;;;;;;10.00;9.00;;;;;-147.17;100.00;39712.41;4993076;28;51679;-65
2023/05/17 08:43:27;;;;;;;;;10.00;10.00;;;;;-147.17;100.00;40323.03;4993313;28;50982;-64
2023/05/17 08:45:53;;;;;;;;;10.33;9.33;;;;;-147.17;100.00;40484.06;4993437;28;51062;-64
2023/05/17 08:48:19;;;;;;;;;11.67;11.67;;;;;-147.17;100.00;40203.25;4989046;28;50953;-65
2023/05/17 08:50:46;;;;;;;;;6.00;6.00;;;;;-147.17;100.00;39783.09;4992509;28;51811;-65
2023/05/17 08:53:12;;;;;;;;;9.67;9.00;;;;;-147.17;100.00;39951.94;4975437;28;51064;-64
2023/05/17 08:55:44;;;;;;;;;7.67;7.33;;;;;-147.17;100.00;39987.28;4993427;28;51122;-66
2023/05/17 08:58:10;;;;;;;;;7.33;6.00;;;;;-147.17;100.00;40144.34;4992937;28;51176;-67
2023/05/17 09:00:37;;;;;;;;;7.33;6.00;;;;;-147.17;100.00;40621.50;4992770;28;51272;-65
2023/05/17 09:03:03;;;;;;;;;7.00;6.00;;;;;-147.17;100.00;41666.34;4990264;28;51213;-66
2023/05/17 09:05:28;;;;;;;;;8.00;7.33;;;;;-147.17;100.00;41970.81;4991769;28;50913;-64
2023/05/17 09:07:56;;;;;;;;;7.00;7.00;;;;;-147.17;100.00;41566.16;4992564;28;50994;-66
2023/05/17 09:10:21;;;;;;;;;9.00;9.00;;;;;-147.17;100.00;41006.41;4981634;28;53748;-65
2023/05/17 09:12:47;;;;;;;;;6.33;6.00;;;;;-147.17;100.00;41595.63;4992271;28;51148;-65
2023/05/17 09:15:18;;;;;;;;;7.00;6.00;;;;;-147.17;100.00;42143.69;4989584;28;50844;-66
2023/05/17 09:17:51;;;;;;;;;8.67;8.00;;;;;-147.17;100.00;42202.59;4988833;28;51022;-66
2023/05/17 09:20:24;;;;;;;;;6.00;6.00;;;;;-147.17;100.00;41742.94;4992384;28;51144;-65
2023/05/17 09:22:54;;;;;;;;;6.00;5.67;;;;;-147.17;100.00;41092.81;4990146;28;51040;-64
2023/05/17 09:25:23;;;;;;;;;6.33;6.33;;;;;-147.17;100.00;40654.91;4987490;28;51026;-65
2023/05/17 09:27:52;;;;;;;;;6.33;6.00;;;;;-147.17;100.00;40413.38;4979913;28;51063;-65
2023/05/17 09:30:17;;;;;;;;;4.00;3.67;;;;;-147.17;100.00;40332.84;4991949;28;51115;-65
2023/05/17 09:32:46;;;;;;;;;8.00;7.00;;;;;-147.17;100.00;40920.00;4991389;28;51019;-64
2023/05/17 09:35:12;;;;;;;;;6.67;6.33;;;;;-147.17;100.00;41678.13;4992527;28;51099;-65
2023/05/17 09:37:38;;;;;;;;;7.33;7.33;;;;;-147.17;100.00;41945.28;4991834;28;51392;-66
2023/05/17 09:40:05;;;;;;;;;7.67;7.67;;;;;-147.17;100.00;41361.91;4994752;28;51147;-66
2023/05/17 09:42:38;;;;;;;;;6.67;6.33;;;;;-147.17;100.00;40792.34;4995402;28;50952;-67
2023/05/17 09:45:03;;;;;;;;;6.00;6.00;;;;;-147.17;100.00;40668.63;5007493;28;51285;-65
2023/05/17 09:47:30;;;;;;;;;6.00;5.33;;;;;-147.17;100.00;41324.56;4995902;28;51353;-66
2023/05/17 09:49:59;;;;;;;;;6.33;6.33;;;;;-147.17;100.00;41310.84;4995487;28;51115;-66
2023/05/17 09:52:30;;;;;;;;;7.00;6.00;;;;;-147.17;100.00;41216.56;4995181;28;50957;-66
2023/05/17 09:54:57;;;;;;;;;6.67;5.67;;;;;-147.17;100.00;41255.84;4995372;28;50948;-66
2023/05/17 09:57:25;;;;;;;;;5.00;5.00;;;;;-147.17;100.00;40780.56;4995629;28;51103;-65
2023/05/17 09:59:54;;;;;;;;;12.00;9.67;;;;;-147.17;100.00;40258.25;4994963;28;51011;-65
2023/05/17 10:02:22;;;;;;;;;6.33;5.00;;;;;-147.17;100.00;39997.09;4995089;28;51107;-66
2023/05/17 10:04:49;;;;;;;;;7.00;5.00;;;;;-147.17;100.00;39999.06;4981591;28;51195;-65
2023/05/17 10:07:18;;;;;;;;;5.00;4.33;;;;;-147.17;100.00;40690.25;4995840;28;51439;-65
2023/05/17 10:09:46;;;;;;;;;6.00;5.00;;;;;-147.17;100.00;40890.53;4983308;28;52206;-64
2023/05/17 10:12:20;;;;;;;;;7.33;7.00;;;;;-147.17;100.00;40839.50;4995093;28;51236;-66
2023/05/17 10:14:46;;;;;;;;;9.00;8.00;;;;;-147.17;100.00;41259.75;4993446;28;51132;-66
2023/05/17 10:17:13;;;;;;;;;5.67;4.67;;;;;-147.17;100.00;41422.78;4995307;28;51031;-65
2023/05/17 10:19:39;;;;;;;;;4.67;4.67;;;;;-147.17;100.00;41784.19;4994754;28;52109;-66
2023/05/17 10:22:05;;;;;;;;;5.67;5.00;;;;;-147.17;100.00;42454.06;4979710;28;51546;-66
2023/05/17 10:24:31;;;;;;;;;11.00;7.33;;;;;-147.17;100.00;42902.03;4993045;28;51238;-66
2023/05/17 10:26:57;;;;;;;;;7.00;7.00;;;;;-147.17;100.00;42909.88;4992465;28;51337;-66
2023/05/17 10:29:23;;;;;;;;;7.33;6.67;;;;;-147.17;100.00;43096.56;4993245;28;51832;-64
2023/05/17 10:31:52;;;;;;;;;5.00;5.00;;;;;-147.17;100.00;43558.34;4989162;28;51052;-65
2023/05/17 10:34:19;;;;;;;;;5.67;5.00;;;;;-147.17;100.00;44346.47;4991757;28;51231;-65
2023/05/17 10:36:45;;;;;;;;;7.00;5.67;;;;;-147.17;100.00;44784.81;4994290;28;51150;-66
2023/05/17 10:39:11;;;;;;;;;8.00;7.00;;;;;-147.17;100.00;45077.72;4994005;28;51678;-65
2023/05/17 10:41:43;;;;;;;;;6.00;5.33;;;;;-147.17;100.00;45508.28;4993062;28;51005;-66
2023/05/17 10:44:12;;;;;;;;;4.00;4.00;;;;;-147.17;100.00;45838.59;4994573;28;51135;-67
2023/05/17 10:46:38;;;;;;;;;4.33;4.33;;;;;-147.17;100.00;46011.63;4993348;28;51078;-65
2023/05/17 10:49:03;;;;;;;;;4.67;4.67;;;;;-147.17;100.00;46149.28;4994236;28;51001;-65
2023/05/17 10:51:31;;;;;;;;;5.00;5.00;;;;;-147.17;100.00;46593.72;4993460;28;51026;-65
2023/05/17 10:54:17;;;;;;;;;3.67;3.67;;;;;-147.17;100.00;46994.97;4994347;28;51018;-67
2023/05/17 10:56:50;;;;;;;;;4.00;4.00;;;;;-147.17;100.00;47171.97;4989510;28;51075;-65
2023/05/17 10:59:23;;;;;;;;;4.67;3.67;;;;;-147.17;100.00;47132.66;5004556;28;53963;-66